METAR Data
IDs: Format: Raw Decoded Include TAF

Data at: 2213 UTC 01 Dec 2021

LFTH 012200Z AUTO 29007KT CAVOK 11/07 Q1005 NOSIG